Time;durP1;ratioP1;P1;durP2;ratioP2;P2;SDS_P1;SDS_P2;PMS_P1;PMS_P2;Temp;Humidity;BMP_temperature;BMP_pressure;BME280_temperature;BME280_humidity;BME280_pressure;Samples;Min_cycle;Max_cycle;Signal;HPM_P1;HPM_P2
2022/08/04 00:00:17;;;;;;;0.25;0.25;;;20.80;99.90;;;;;;4956796;28;20057;-84
2022/08/04 00:03:10;;;;;;;0.25;0.25;;;20.70;99.90;;;;;;4956077;28;20066;-84
2022/08/04 00:06:04;;;;;;;0.20;0.20;;;20.60;99.90;;;;;;4958170;28;20051;-84
2022/08/04 00:08:41;;;;;;;0.30;0.30;;;20.60;99.90;;;;;;4961291;28;20133;-84
2022/08/04 00:11:10;;;;;;;0.30;0.30;;;20.60;99.90;;;;;;4957840;28;20057;-83
2022/08/04 00:13:41;;;;;;;0.20;0.20;;;20.70;99.90;;;;;;4959486;28;20163;-84
2022/08/04 00:16:11;;;;;;;0.30;0.30;;;20.70;99.90;;;;;;4958162;28;20157;-83
2022/08/04 00:18:48;;;;;;;0.30;0.30;;;20.60;99.90;;;;;;4964063;28;20058;-84
2022/08/04 00:21:15;;;;;;;0.30;0.30;;;20.50;99.90;;;;;;4969183;28;20053;-84
2022/08/04 00:23:43;;;;;;;0.30;0.30;;;20.50;99.90;;;;;;4947144;28;20056;-84
2022/08/04 00:26:09;;;;;;;0.30;0.30;;;20.50;99.90;;;;;;4955596;28;20068;-84
2022/08/04 00:28:41;;;;;;;0.30;0.30;;;20.40;99.90;;;;;;4968889;28;20046;-84
2022/08/04 00:31:09;;;;;;;0.30;0.30;;;20.10;99.90;;;;;;4946044;28;20140;-84
2022/08/04 00:33:37;;;;;;;0.30;0.30;;;20.10;99.90;;;;;;4966944;28;20149;-84
2022/08/04 00:36:03;;;;;;;0.30;0.30;;;20.00;99.90;;;;;;4965140;28;20046;-84
2022/08/04 00:38:30;;;;;;;0.20;0.20;;;19.90;99.90;;;;;;4958327;28;20045;-84
2022/08/04 00:41:04;;;;;;;0.20;0.20;;;19.80;99.90;;;;;;4949775;28;20108;-84
2022/08/04 00:43:33;;;;;;;0.30;0.30;;;19.70;99.90;;;;;;4984928;28;20160;-84
2022/08/04 00:46:38;;;;;;;0.30;0.30;;;19.70;99.90;;;;;;4956984;28;20057;-84
2022/08/04 00:49:12;;;;;;;0.30;0.30;;;19.90;99.90;;;;;;4980260;28;22273;-83
2022/08/04 00:52:08;;;;;;;0.30;0.30;;;20.00;99.90;;;;;;4958368;28;20045;-83
2022/08/04 00:54:56;;;;;;;0.20;0.20;;;20.20;99.90;;;;;;4959144;28;20060;-84
2022/08/04 00:57:46;;;;;;;0.20;0.20;;;20.20;99.90;;;;;;4963277;28;20046;-85
2022/08/04 01:00:14;;;;;;;0.30;0.30;;;20.20;99.90;;;;;;4956936;28;20105;-84
2022/08/04 01:02:49;;;;;;;0.30;0.30;;;20.10;99.90;;;;;;4968394;28;20157;-83
2022/08/04 01:05:25;;;;;;;0.30;0.30;;;20.00;99.90;;;;;;4991622;28;20137;-83
2022/08/04 01:08:12;;;;;;;0.30;0.30;;;20.10;99.90;;;;;;4968764;28;20054;-84
2022/08/04 01:10:59;;;;;;;0.30;0.30;;;20.10;99.90;;;;;;4965646;28;20104;-84
2022/08/04 01:13:43;;;;;;;0.30;0.30;;;20.00;99.90;;;;;;4968616;28;20073;-84
2022/08/04 01:16:15;;;;;;;0.30;0.30;;;19.90;99.90;;;;;;4978004;28;20061;-84
2022/08/04 01:19:01;;;;;;;0.63;0.32;;;20.00;99.90;;;;;;4961076;28;20077;-84
2022/08/04 01:21:42;;;;;;;0.30;0.30;;;19.90;99.90;;;;;;4953436;28;20433;-83
2022/08/04 01:24:28;;;;;;;0.20;0.20;;;20.00;99.90;;;;;;4969468;28;20045;-85
2022/08/04 01:27:19;;;;;;;0.30;0.30;;;20.00;99.90;;;;;;4971390;28;20050;-84
2022/08/04 01:29:56;;;;;;;0.30;0.30;;;19.90;99.90;;;;;;4972883;28;20054;-85
2022/08/04 01:32:27;;;;;;;0.32;0.32;;;19.90;99.90;;;;;;4951739;28;21045;-85
2022/08/04 01:35:07;;;;;;;0.30;0.30;;;19.90;99.90;;;;;;4969825;28;20105;-85
2022/08/04 01:38:15;;;;;;;0.30;0.30;;;19.90;99.90;;;;;;4966725;28;20104;-85
2022/08/04 01:40:41;;;;;;;0.30;0.30;;;19.90;99.90;;;;;;4986494;28;20715;-84
2022/08/04 01:43:08;;;;;;;0.20;0.20;;;19.80;99.90;;;;;;4964939;28;20061;-83
2022/08/04 01:45:36;;;;;;;0.30;0.30;;;19.80;99.90;;;;;;4969280;28;20133;-83
2022/08/04 01:48:02;;;;;;;0.30;0.30;;;20.00;99.90;;;;;;4970009;28;20436;-84
2022/08/04 01:50:35;;;;;;;0.30;0.30;;;19.90;99.90;;;;;;4955006;28;20046;-82
2022/08/04 01:53:02;;;;;;;0.20;0.20;;;19.90;99.90;;;;;;4971195;28;20062;-82
2022/08/04 01:55:29;;;;;;;0.45;0.30;;;19.90;99.90;;;;;;4978346;28;20630;-77
2022/08/04 01:57:58;;;;;;;0.30;0.30;;;20.00;99.90;;;;;;4966523;28;20501;-79
2022/08/04 02:00:28;;;;;;;0.30;0.30;;;19.90;99.90;;;;;;4967989;28;20085;-80
2022/08/04 02:02:55;;;;;;;0.20;0.20;;;19.90;99.90;;;;;;4969778;28;20457;-80
2022/08/04 02:05:23;;;;;;;0.30;0.30;;;19.90;99.90;;;;;;4968029;28;20815;-80
2022/08/04 02:08:18;;;;;;;0.20;0.20;;;19.90;99.90;;;;;;4959958;28;20050;-81
2022/08/04 02:11:13;;;;;;;0.30;0.30;;;19.80;99.90;;;;;;4965842;28;20058;-83
2022/08/04 02:14:05;;;;;;;0.30;0.30;;;19.80;99.90;;;;;;4949665;28;20060;-82
2022/08/04 02:16:48;;;;;;;0.30;0.30;;;19.70;99.90;;;;;;4966023;28;20081;-82
2022/08/04 02:19:28;;;;;;;0.30;0.30;;;19.70;99.90;;;;;;4978532;28;20054;-82
2022/08/04 02:22:17;;;;;;;0.30;0.30;;;19.70;99.90;;;;;;4974155;28;20073;-82
2022/08/04 02:24:48;;;;;;;0.28;0.28;;;19.60;99.90;;;;;;4966071;28;20921;-82
2022/08/04 02:27:15;;;;;;;0.30;0.30;;;19.60;99.90;;;;;;4959934;28;20057;-82
2022/08/04 02:30:02;;;;;;;0.30;0.30;;;19.60;99.90;;;;;;4975418;28;20048;-82
2022/08/04 02:32:38;;;;;;;0.30;0.30;;;19.60;99.90;;;;;;4967283;28;20046;-82
2022/08/04 02:35:13;;;;;;;0.30;0.30;;;19.60;99.90;;;;;;4970215;28;20058;-82
2022/08/04 02:37:45;;;;;;;0.30;0.30;;;19.60;99.90;;;;;;4968141;28;20617;-83
2022/08/04 02:40:11;;;;;;;0.30;0.30;;;19.50;99.90;;;;;;4975734;28;20917;-82
2022/08/04 02:42:37;;;;;;;0.30;0.30;;;19.50;99.90;;;;;;4970868;28;20556;-83
2022/08/04 02:45:06;;;;;;;0.30;0.30;;;19.50;99.90;;;;;;4970031;28;20053;-83
2022/08/04 02:47:33;;;;;;;0.25;0.25;;;19.50;99.90;;;;;;4966253;28;20046;-82
2022/08/04 02:50:01;;;;;;;0.30;0.30;;;19.60;99.90;;;;;;4967157;28;20129;-83
2022/08/04 02:52:29;;;;;;;0.30;0.30;;;19.60;99.90;;;;;;4950699;28;20127;-82
2022/08/04 02:54:57;;;;;;;0.30;0.30;;;19.50;99.90;;;;;;4950471;28;20050;-83
2022/08/04 02:57:28;;;;;;;0.30;0.30;;;19.50;99.90;;;;;;4967668;28;20089;-82
2022/08/04 03:00:03;;;;;;;0.30;0.30;;;19.50;99.90;;;;;;4964476;28;20054;-82
2022/08/04 03:02:54;;;;;;;0.30;0.30;;;19.40;99.90;;;;;;4955033;28;20046;-82
2022/08/04 03:05:43;;;;;;;0.30;0.30;;;19.40;99.90;;;;;;4917892;28;20120;-83
2022/08/04 03:08:12;;;;;;;0.30;0.30;;;19.50;99.90;;;;;;4947152;28;20054;-82
2022/08/04 03:10:44;;;;;;;0.30;0.30;;;19.40;99.90;;;;;;4951585;28;20042;-82
2022/08/04 03:13:52;;;;;;;0.30;0.30;;;19.40;99.90;;;;;;4954224;28;20172;-82
2022/08/04 03:16:36;;;;;;;0.30;0.30;;;19.40;99.90;;;;;;4949468;28;20050;-81
2022/08/04 03:19:07;;;;;;;0.30;0.30;;;19.40;99.90;;;;;;4950321;28;20516;-83
2022/08/04 03:21:59;;;;;;;0.30;0.30;;;19.30;99.90;;;;;;4948490;28;20050;-83
2022/08/04 03:24:46;;;;;;;0.30;0.30;;;19.30;99.90;;;;;;4967491;28;20042;-80
2022/08/04 03:27:44;;;;;;;0.20;0.20;;;19.30;99.90;;;;;;4963235;28;20089;-82
2022/08/04 03:30:52;;;;;;;0.30;0.30;;;19.30;99.90;;;;;;4924633;28;20061;-82
2022/08/04 03:33:43;;;;;;;0.25;0.25;;;19.30;99.90;;;;;;4955152;28;20300;-83
2022/08/04 03:36:31;;;;;;;0.30;0.30;;;19.30;99.90;;;;;;4952267;28;20667;-82
2022/08/04 03:39:27;;;;;;;0.30;0.30;;;19.30;99.90;;;;;;4951490;28;20057;-82
2022/08/04 03:42:25;;;;;;;0.32;0.30;;;19.30;99.90;;;;;;4951168;28;20131;-81
2022/08/04 03:45:21;;;;;;;0.30;0.30;;;19.20;99.90;;;;;;4953787;28;20049;-82
2022/08/04 03:48:29;;;;;;;0.30;0.30;;;19.30;99.90;;;;;;4969213;28;20050;-82
2022/08/04 03:53:57;;;;;;;0.28;0.28;;;19.20;99.90;;;;;;4953080;28;20313;-82
2022/08/04 03:56:52;;;;;;;0.30;0.30;;;19.30;99.90;;;;;;4958600;28;20494;-82
2022/08/04 03:59:53;;;;;;;0.30;0.30;;;19.30;99.90;;;;;;4959472;28;20061;-83
2022/08/04 04:02:44;;;;;;;0.30;0.30;;;19.30;99.90;;;;;;4957695;28;20050;-82
2022/08/04 04:05:29;;;;;;;0.30;0.30;;;19.20;99.90;;;;;;4958279;28;20050;-82
2022/08/04 04:08:24;;;;;;;0.30;0.30;;;19.10;99.90;;;;;;4970036;28;21212;-80
2022/08/04 04:10:52;;;;;;;0.30;0.30;;;19.30;99.90;;;;;;4928323;28;20494;-82
2022/08/04 04:13:33;;;;;;;0.30;0.30;;;19.40;99.90;;;;;;4940767;28;20050;-81
2022/08/04 04:16:27;;;;;;;0.30;0.30;;;19.40;99.90;;;;;;4954704;28;20857;-81
2022/08/04 04:19:18;;;;;;;0.30;0.30;;;19.30;99.90;;;;;;4956208;28;20056;-81
2022/08/04 04:22:06;;;;;;;0.20;0.20;;;19.40;99.90;;;;;;4958370;28;20537;-81
2022/08/04 04:24:54;;;;;;;0.30;0.30;;;19.40;99.90;;;;;;4955231;28;20295;-79
2022/08/04 04:27:29;;;;;;;0.30;0.30;;;19.50;99.90;;;;;;4956493;28;20043;-81
2022/08/04 04:30:10;;;;;;;0.30;0.30;;;19.50;99.90;;;;;;4959336;28;20104;-81
2022/08/04 04:32:57;;;;;;;0.30;0.30;;;19.50;99.90;;;;;;4957758;28;21580;-81
2022/08/04 04:35:52;;;;;;;0.30;0.30;;;19.50;99.90;;;;;;4965373;28;20047;-82
2022/08/04 04:38:49;;;;;;;0.30;0.30;;;19.40;99.90;;;;;;4953722;28;20576;-80
2022/08/04 04:41:23;;;;;;;0.30;0.30;;;19.40;99.90;;;;;;4959554;28;20164;-81
2022/08/04 04:44:19;;;;;;;0.30;0.30;;;19.40;99.90;;;;;;4955463;28;20086;-82
2022/08/04 04:47:22;;;;;;;0.30;0.30;;;19.40;99.90;;;;;;4957845;28;21496;-81
2022/08/04 04:50:14;;;;;;;0.30;0.30;;;19.50;99.90;;;;;;4961792;28;20038;-82
2022/08/04 04:53:05;;;;;;;0.20;0.20;;;19.60;99.90;;;;;;4960421;28;20805;-82
2022/08/04 04:55:41;;;;;;;0.30;0.30;;;19.70;99.90;;;;;;4965219;28;20077;-81
2022/08/04 04:58:13;;;;;;;0.30;0.30;;;19.80;99.90;;;;;;4959323;28;20053;-81
2022/08/04 05:00:45;;;;;;;0.20;0.20;;;19.90;99.90;;;;;;4958712;28;20049;-81
2022/08/04 05:03:47;;;;;;;0.20;0.20;;;20.10;99.90;;;;;;4957763;28;20614;-82
2022/08/04 05:06:25;;;;;;;0.30;0.30;;;20.20;99.90;;;;;;4964173;28;20054;-81
2022/08/04 05:09:28;;;;;;;0.30;0.30;;;20.30;99.90;;;;;;4957352;28;20046;-81
2022/08/04 05:12:18;;;;;;;0.30;0.30;;;20.70;99.90;;;;;;4962879;28;20420;-82
2022/08/04 05:14:48;;;;;;;0.30;0.30;;;21.90;99.90;;;;;;4943810;28;20503;-81
2022/08/04 05:17:28;;;;;;;0.30;0.30;;;23.00;99.90;;;;;;4954359;28;21055;-82
2022/08/04 05:20:07;;;;;;;0.30;0.30;;;23.80;99.90;;;;;;4955606;28;20425;-82
2022/08/04 05:22:41;;;;;;;0.38;0.38;;;24.20;99.90;;;;;;4942548;28;20119;-82
2022/08/04 05:25:42;;;;;;;0.35;0.35;;;24.00;99.90;;;;;;4959423;28;20720;-82
2022/08/04 05:28:18;;;;;;;0.30;0.30;;;23.80;99.90;;;;;;4958476;28;20460;-82
2022/08/04 05:31:04;;;;;;;0.20;0.20;;;24.40;99.90;;;;;;4957592;28;20677;-82
2022/08/04 05:33:40;;;;;;;0.20;0.20;;;24.60;99.90;;;;;;4965113;28;20096;-82
2022/08/04 05:36:13;;;;;;;0.20;0.20;;;25.70;99.90;;;;;;4968149;28;20056;-82
2022/08/04 05:38:40;;;;;;;0.30;0.30;;;26.10;99.90;;;;;;4965217;28;20135;-82
2022/08/04 05:41:08;;;;;;;0.20;0.20;;;25.60;99.90;;;;;;4967329;28;20458;-82
2022/08/04 05:43:37;;;;;;;0.20;0.20;;;25.30;99.90;;;;;;4971206;28;20051;-82
2022/08/04 05:46:03;;;;;;;0.20;0.20;;;24.60;99.90;;;;;;4970459;28;20137;-82
2022/08/04 05:48:32;;;;;;;0.22;0.22;;;24.30;99.90;;;;;;4973350;28;20051;-81
2022/08/04 05:50:58;;;;;;;0.30;0.30;;;24.40;99.90;;;;;;4968337;28;20054;-82
2022/08/04 05:53:25;;;;;;;0.20;0.20;;;24.10;99.90;;;;;;4966294;28;20794;-82
2022/08/04 05:55:51;;;;;;;0.20;0.20;;;23.90;99.90;;;;;;4965259;28;20054;-82
2022/08/04 05:58:19;;;;;;;0.20;0.20;;;23.90;99.90;;;;;;4954110;28;20082;-82
2022/08/04 06:00:46;;;;;;;0.30;0.30;;;23.90;99.90;;;;;;4977039;28;20074;-81
2022/08/04 06:03:13;;;;;;;0.20;0.20;;;23.50;99.90;;;;;;4968384;28;20513;-82
2022/08/04 06:05:41;;;;;;;0.30;0.30;;;24.10;99.90;;;;;;4966254;28;20476;-81
2022/08/04 06:08:07;;;;;;;0.20;0.20;;;23.90;99.90;;;;;;4968836;28;20466;-80
2022/08/04 06:10:37;;;;;;;0.22;0.22;;;23.90;99.90;;;;;;4962224;28;20042;-80
2022/08/04 06:13:09;;;;;;;0.20;0.20;;;24.00;99.90;;;;;;4976612;28;21332;-80
2022/08/04 06:15:39;;;;;;;0.20;0.20;;;23.90;99.90;;;;;;4964092;28;20104;-82
2022/08/04 06:18:08;;;;;;;0.30;0.25;;;23.80;99.90;;;;;;4939740;28;20582;-81
2022/08/04 06:20:36;;;;;;;0.20;0.20;;;23.80;99.90;;;;;;4941032;28;21068;-81
2022/08/04 06:23:06;;;;;;;0.25;0.25;;;23.90;99.90;;;;;;4945076;28;20082;-81
2022/08/04 06:25:37;;;;;;;0.20;0.20;;;23.90;99.90;;;;;;4958471;28;20050;-81
2022/08/04 06:28:05;;;;;;;0.20;0.20;;;23.40;99.90;;;;;;4946892;28;20056;-80
2022/08/04 06:30:32;;;;;;;0.20;0.20;;;23.30;99.90;;;;;;4951502;28;20044;-81
2022/08/04 06:33:02;;;;;;;0.28;0.28;;;23.60;99.90;;;;;;4949149;28;20054;-79
2022/08/04 06:35:29;;;;;;;0.20;0.20;;;23.70;99.90;;;;;;4948737;28;20050;-78
2022/08/04 06:37:57;;;;;;;0.20;0.20;;;23.80;99.90;;;;;;4953108;28;20073;-80
2022/08/04 06:40:24;;;;;;;0.20;0.20;;;24.00;99.90;;;;;;4956255;28;20100;-77
2022/08/04 06:42:51;;;;;;;0.20;0.20;;;24.20;99.90;;;;;;4952888;28;20065;-79
2022/08/04 06:45:19;;;;;;;0.20;0.20;;;24.10;99.90;;;;;;4950364;28;20086;-80
2022/08/04 06:47:46;;;;;;;0.20;0.20;;;24.10;99.90;;;;;;4950905;28;20060;-79
2022/08/04 06:50:12;;;;;;;0.28;0.28;;;24.40;99.90;;;;;;4961722;28;20153;-79
2022/08/04 06:52:39;;;;;;;0.20;0.20;;;24.50;99.90;;;;;;4951471;28;20133;-80
2022/08/04 06:55:06;;;;;;;0.30;0.30;;;24.50;99.90;;;;;;4946702;28;20054;-81
2022/08/04 06:57:34;;;;;;;0.20;0.20;;;24.50;99.90;;;;;;4950193;28;20182;-80
2022/08/04 07:00:04;;;;;;;0.30;0.30;;;24.50;99.90;;;;;;4953405;28;20052;-79
2022/08/04 07:02:37;;;;;;;0.20;0.20;;;24.60;99.90;;;;;;4966487;28;20769;-80
2022/08/04 07:05:06;;;;;;;0.20;0.20;;;24.70;99.90;;;;;;4950137;28;20046;-81
2022/08/04 07:07:32;;;;;;;0.20;0.20;;;24.90;99.90;;;;;;4950789;28;20054;-79
2022/08/04 07:10:00;;;;;;;0.20;0.20;;;25.10;99.90;;;;;;4941237;28;20508;-80
2022/08/04 07:12:27;;;;;;;0.20;0.20;;;25.20;99.90;;;;;;4953437;28;20072;-81
2022/08/04 07:14:54;;;;;;;0.20;0.20;;;25.10;99.90;;;;;;4946785;28;20068;-80
2022/08/04 07:17:22;;;;;;;0.20;0.20;;;25.20;99.90;;;;;;4950087;28;20050;-80
2022/08/04 07:19:48;;;;;;;0.20;0.20;;;25.20;99.90;;;;;;4951277;28;20065;-81
2022/08/04 07:22:15;;;;;;;0.20;0.20;;;25.40;99.90;;;;;;4957000;28;20570;-81
2022/08/04 07:24:41;;;;;;;0.20;0.20;;;25.60;99.90;;;;;;4946860;28;20042;-82
2022/08/04 07:27:08;;;;;;;0.20;0.20;;;25.60;99.90;;;;;;4959270;28;20042;-80
2022/08/04 07:29:37;;;;;;;0.20;0.20;;;25.70;99.90;;;;;;4955851;28;20046;-81
2022/08/04 07:32:04;;;;;;;0.30;0.30;;;25.70;99.90;;;;;;4955771;28;20059;-80
2022/08/04 07:34:31;;;;;;;0.20;0.20;;;26.00;99.90;;;;;;4957686;28;20132;-81
2022/08/04 07:36:59;;;;;;;0.20;0.20;;;26.10;99.90;;;;;;4958343;28;21091;-80
2022/08/04 07:39:28;;;;;;;0.63;0.52;;;26.30;99.90;;;;;;4959864;28;20042;-80
2022/08/04 07:41:54;;;;;;;0.20;0.20;;;26.30;99.90;;;;;;4955441;28;20046;-80
2022/08/04 07:44:20;;;;;;;0.20;0.20;;;26.60;99.90;;;;;;4958388;28;20704;-80
2022/08/04 07:46:46;;;;;;;0.28;0.28;;;26.60;99.90;;;;;;4955454;28;20038;-80
2022/08/04 07:49:13;;;;;;;0.20;0.20;;;26.50;99.90;;;;;;4958744;28;20538;-80
2022/08/04 07:51:39;;;;;;;0.20;0.20;;;26.60;99.90;;;;;;4950317;28;20050;-81
2022/08/04 07:54:09;;;;;;;0.20;0.20;;;26.70;99.90;;;;;;4953572;28;20556;-80
2022/08/04 07:56:39;;;;;;;0.20;0.20;;;26.10;99.90;;;;;;4952672;28;20046;-81
2022/08/04 07:59:06;;;;;;;0.20;0.20;;;26.20;99.90;;;;;;4967442;28;20064;-81
2022/08/04 08:01:35;;;;;;;0.20;0.20;;;26.20;99.90;;;;;;4953339;28;20046;-81
2022/08/04 08:04:04;;;;;;;0.20;0.20;;;26.20;99.90;;;;;;4946312;28;20050;-82
2022/08/04 08:06:30;;;;;;;0.20;0.20;;;26.30;99.90;;;;;;4953322;28;20198;-82
2022/08/04 08:08:59;;;;;;;0.25;0.25;;;26.40;99.90;;;;;;4946333;28;20071;-82
2022/08/04 08:11:26;;;;;;;0.20;0.20;;;26.30;99.90;;;;;;4949752;28;20090;-81
2022/08/04 08:13:52;;;;;;;0.20;0.20;;;26.40;99.90;;;;;;4957775;28;20097;-83
2022/08/04 08:16:19;;;;;;;0.20;0.20;;;26.30;99.90;;;;;;4952778;28;20782;-82
2022/08/04 08:18:46;;;;;;;0.20;0.20;;;26.20;99.90;;;;;;4957836;28;20056;-81
2022/08/04 08:21:12;;;;;;;0.20;0.20;;;26.30;99.90;;;;;;4954239;28;20078;-82
2022/08/04 08:23:39;;;;;;;0.20;0.20;;;26.50;99.90;;;;;;4955544;28;20056;-80
2022/08/04 08:26:06;;;;;;;0.20;0.20;;;26.50;99.90;;;;;;4952846;28;20189;-82
2022/08/04 08:28:31;;;;;;;0.30;0.30;;;26.50;99.90;;;;;;4951752;28;20042;-81
2022/08/04 08:30:57;;;;;;;0.20;0.20;;;26.50;99.90;;;;;;4956516;28;20140;-81
2022/08/04 08:33:24;;;;;;;0.30;0.30;;;26.50;99.90;;;;;;4970912;28;20042;-81
2022/08/04 08:36:02;;;;;;;0.20;0.20;;;26.70;99.90;;;;;;4963104;28;20442;-81
2022/08/04 08:38:54;;;;;;;0.20;0.20;;;26.90;99.90;;;;;;4973626;28;20046;-81
2022/08/04 08:41:50;;;;;;;0.20;0.20;;;27.40;99.90;;;;;;4973726;28;20124;-80
2022/08/04 08:44:28;;;;;;;0.20;0.20;;;27.90;99.90;;;;;;4975741;28;20093;-81
2022/08/04 08:47:03;;;;;;;0.20;0.20;;;28.20;99.90;;;;;;4973512;28;20992;-80
2022/08/04 08:49:50;;;;;;;0.20;0.20;;;28.50;99.90;;;;;;4973377;28;20038;-80
2022/08/04 08:52:35;;;;;;;0.25;0.25;;;28.60;99.90;;;;;;4970535;28;20049;-80
2022/08/04 08:55:05;;;;;;;0.20;0.20;;;28.60;99.90;;;;;;4983308;28;20057;-81
2022/08/04 08:57:59;;;;;;;0.20;0.20;;;28.80;99.90;;;;;;4966382;28;20085;-80
2022/08/04 09:00:41;;;;;;;0.20;0.20;;;29.10;99.90;;;;;;4978386;28;20038;-81
2022/08/04 09:03:26;;;;;;;0.20;0.20;;;29.30;99.90;;;;;;4969928;28;20064;-80
2022/08/04 09:06:22;;;;;;;0.20;0.20;;;29.70;99.90;;;;;;4972948;28;20062;-79
2022/08/04 09:09:20;;;;;;;0.20;0.20;;;29.90;99.90;;;;;;4968323;28;20042;-80
2022/08/04 09:12:16;;;;;;;0.20;0.20;;;30.30;99.90;;;;;;4973920;28;20046;-78
2022/08/04 09:15:10;;;;;;;0.20;0.20;;;30.30;99.90;;;;;;4972787;28;20046;-78
2022/08/04 09:17:50;;;;;;;0.20;0.20;;;30.40;99.90;;;;;;4944757;28;20058;-80
2022/08/04 09:20:45;;;;;;;0.20;0.20;;;30.60;99.90;;;;;;4973603;28;20057;-79
2022/08/04 09:23:22;;;;;;;0.20;0.20;;;30.90;99.90;;;;;;4971307;28;20054;-78
2022/08/04 09:26:07;;;;;;;0.20;0.20;;;31.00;99.90;;;;;;4975209;28;20052;-81
2022/08/04 09:29:06;;;;;;;0.20;0.20;;;30.80;99.90;;;;;;4973414;28;20046;-79
2022/08/04 09:31:48;;;;;;;0.20;0.20;;;30.60;99.90;;;;;;4966462;28;20057;-78
2022/08/04 09:34:38;;;;;;;0.20;0.20;;;30.60;99.90;;;;;;4968862;28;20490;-78
2022/08/04 09:37:19;;;;;;;0.30;0.30;;;31.10;99.90;;;;;;4987592;28;20049;-82
2022/08/04 09:40:00;;;;;;;0.20;0.20;;;31.20;99.90;;;;;;4960472;28;20054;-81
2022/08/04 09:42:54;;;;;;;0.20;0.20;;;31.00;99.90;;;;;;4970391;28;20140;-80
2022/08/04 09:45:20;;;;;;;;;;;31.20;99.90;;;;;;4954014;28;20046;-80
2022/08/04 09:48:07;;;;;;;0.20;0.20;;;31.40;99.90;;;;;;4971737;28;19925;-80
2022/08/04 09:50:44;;;;;;;0.30;0.30;;;31.30;99.90;;;;;;4971908;28;20509;-80
2022/08/04 09:53:19;;;;;;;0.20;0.20;;;31.10;99.90;;;;;;4972215;28;20151;-80
2022/08/04 09:55:45;;;;;;;0.20;0.20;;;31.10;99.90;;;;;;4956887;28;20952;-79
2022/08/04 09:58:47;;;;;;;0.20;0.20;;;31.00;99.90;;;;;;4972546;28;20046;-81
2022/08/04 10:01:17;;;;;;;0.20;0.20;;;31.00;99.90;;;;;;4946478;28;20066;-80
2022/08/04 10:03:49;;;;;;;0.20;0.20;;;30.60;99.90;;;;;;4968835;28;20537;-81
2022/08/04 10:06:40;;;;;;;0.20;0.20;;;30.60;99.90;;;;;;4966943;28;20065;-82
2022/08/04 10:09:15;;;;;;;0.20;0.20;;;30.50;99.90;;;;;;4970859;28;20038;-80
2022/08/04 10:11:59;;;;;;;0.20;0.20;;;30.30;99.90;;;;;;4980236;28;20053;-80
2022/08/04 10:14:51;;;;;;;0.28;0.28;;;30.50;99.90;;;;;;4970799;28;20070;-82
2022/08/04 10:17:41;;;;;;;0.20;0.20;;;30.70;99.90;;;;;;4967866;28;20574;-81
2022/08/04 10:20:41;;;;;;;0.30;0.30;;;31.00;99.90;;;;;;4980851;28;20265;-79
2022/08/04 10:23:44;;;;;;;0.20;0.20;;;31.00;99.90;;;;;;4983656;28;20061;-82
2022/08/04 10:26:41;;;;;;;0.20;0.20;;;31.10;99.90;;;;;;4953342;28;20046;-80
2022/08/04 10:29:16;;;;;;;0.25;0.25;;;31.70;99.90;;;;;;4982005;28;20152;-80
2022/08/04 10:31:59;;;;;;;0.20;0.20;;;31.90;99.90;;;;;;4971168;28;20046;-79
2022/08/04 10:34:57;;;;;;;0.20;0.20;;;31.60;99.90;;;;;;4963966;28;20104;-80
2022/08/04 10:37:41;;;;;;;0.20;0.20;;;31.70;99.90;;;;;;4966095;28;20046;-81
2022/08/04 10:43:02;;;;;;;0.20;0.20;;;31.70;99.90;;;;;;4969506;28;19945;-79
2022/08/04 10:45:38;;;;;;;0.22;0.22;;;32.30;99.90;;;;;;4985718;28;20152;-80
2022/08/04 10:48:18;;;;;;;0.30;0.30;;;32.60;99.90;;;;;;4968342;28;20095;-81
2022/08/04 10:50:58;;;;;;;0.20;0.20;;;32.30;99.90;;;;;;4974179;28;20053;-81
2022/08/04 10:53:28;;;;;;;0.20;0.20;;;32.90;99.90;;;;;;4986340;28;20417;-79
2022/08/04 10:56:02;;;;;;;0.20;0.20;;;33.00;99.90;;;;;;4969757;28;20136;-78
2022/08/04 10:58:35;;;;;;;0.20;0.20;;;33.20;99.90;;;;;;4979589;28;20081;-82
2022/08/04 11:01:08;;;;;;;0.20;0.20;;;33.20;99.90;;;;;;4971133;28;20049;-81
2022/08/04 11:03:43;;;;;;;0.20;0.20;;;33.30;99.90;;;;;;4972192;28;20404;-80
2022/08/04 11:06:16;;;;;;;0.20;0.20;;;33.40;99.90;;;;;;4968741;28;20050;-80
2022/08/04 11:08:50;;;;;;;0.20;0.20;;;33.30;99.90;;;;;;4961763;28;20896;-82
2022/08/04 11:11:31;;;;;;;0.20;0.20;;;33.10;99.90;;;;;;4970035;28;20058;-81
2022/08/04 11:14:10;;;;;;;0.20;0.20;;;33.10;99.90;;;;;;4973105;28;20062;-83
2022/08/04 11:16:45;;;;;;;0.20;0.20;;;32.90;99.90;;;;;;4968689;28;20535;-82
2022/08/04 11:19:36;;;;;;;0.20;0.20;;;32.60;99.90;;;;;;4961902;28;20054;-82
2022/08/04 11:22:09;;;;;;;0.20;0.20;;;32.50;99.90;;;;;;4940507;28;20039;-81
2022/08/04 11:24:39;;;;;;;0.30;0.30;;;32.30;99.90;;;;;;4957664;28;20047;-81
2022/08/04 11:27:33;;;;;;;0.30;0.30;;;32.00;99.90;;;;;;4952547;28;20411;-81
2022/08/04 11:30:11;;;;;;;0.20;0.20;;;31.80;99.90;;;;;;4964817;28;20116;-83
2022/08/04 11:32:50;;;;;;;0.20;0.20;;;31.50;99.90;;;;;;4958782;28;20533;-83
2022/08/04 11:35:28;;;;;;;0.25;0.25;;;31.20;99.90;;;;;;4956796;28;20133;-81
2022/08/04 11:38:48;;;;;;;0.20;0.20;;;31.00;99.90;;;;;;4954880;28;20942;-80
2022/08/04 11:41:20;;;;;;;0.20;0.20;;;30.70;99.90;;;;;;4884784;29;20543;-79
2022/08/04 11:43:59;;;;;;;0.30;0.30;;;30.60;99.90;;;;;;4944577;28;20065;-79
2022/08/04 11:46:44;;;;;;;0.20;0.20;;;30.10;99.90;;;;;;4973668;28;20052;-80
2022/08/04 11:49:21;;;;;;;0.20;0.20;;;29.50;99.90;;;;;;4955091;28;20046;-81
2022/08/04 11:51:49;;;;;;;0.20;0.20;;;29.10;99.90;;;;;;4960294;28;20054;-82
2022/08/04 11:54:16;;;;;;;0.20;0.20;;;28.80;99.90;;;;;;4958046;28;20061;-79
2022/08/04 11:56:41;;;;;;;0.20;0.20;;;28.60;99.90;;;;;;4950475;28;20065;-80
2022/08/04 11:59:07;;;;;;;0.20;0.20;;;28.40;99.90;;;;;;4955871;28;20475;-82
2022/08/04 12:01:58;;;;;;;0.20;0.20;;;28.40;99.90;;;;;;4956661;28;20042;-81
2022/08/04 12:04:33;;;;;;;0.20;0.20;;;28.20;99.90;;;;;;4953514;28;20078;-81
2022/08/04 12:07:24;;;;;;;0.20;0.20;;;28.10;99.90;;;;;;4943883;28;20089;-82
2022/08/04 12:10:10;;;;;;;0.20;0.20;;;27.90;99.90;;;;;;4963878;28;20124;-80
2022/08/04 12:12:52;;;;;;;0.20;0.20;;;27.70;99.90;;;;;;4962126;28;20080;-80
2022/08/04 12:15:30;;;;;;;0.20;0.20;;;27.40;99.90;;;;;;4954982;28;20555;-80
2022/08/04 12:18:44;;;;;;;0.20;0.20;;;27.20;99.90;;;;;;4954280;28;20108;-80
2022/08/04 12:21:45;;;;;;;0.20;0.20;;;27.10;99.90;;;;;;4949515;28;20061;-78
2022/08/04 12:24:20;;;;;;;0.20;0.20;;;26.90;99.90;;;;;;4949680;28;20120;-79
2022/08/04 12:26:55;;;;;;;0.50;0.20;;;26.60;99.90;;;;;;4971737;28;20054;-79
2022/08/04 12:29:24;;;;;;;0.20;0.20;;;26.50;99.90;;;;;;4983218;28;20128;-79
2022/08/04 12:31:55;;;;;;;0.20;0.20;;;26.30;99.90;;;;;;4941332;28;20066;-79
2022/08/04 12:34:30;;;;;;;0.20;0.20;;;26.10;99.90;;;;;;4974039;28;20046;-78
2022/08/04 12:37:22;;;;;;;0.20;0.20;;;26.00;99.90;;;;;;4971620;28;20049;-80
2022/08/04 12:39:52;;;;;;;0.20;0.20;;;26.00;99.90;;;;;;4973731;28;20465;-79
2022/08/04 12:42:32;;;;;;;0.20;0.20;;;25.80;99.90;;;;;;4970923;28;20493;-79
2022/08/04 12:44:58;;;;;;;0.20;0.20;;;25.80;99.90;;;;;;4970769;28;20042;-79
2022/08/04 12:47:28;;;;;;;0.30;0.30;;;25.60;99.90;;;;;;4972053;28;20050;-79
2022/08/04 12:50:00;;;;;;;0.20;0.20;;;25.50;99.90;;;;;;4972494;28;20239;-81
2022/08/04 12:52:49;;;;;;;0.20;0.20;;;25.40;99.90;;;;;;4990516;28;20093;-80
2022/08/04 12:55:18;;;;;;;0.20;0.20;;;25.20;99.90;;;;;;4983992;28;20069;-82
2022/08/04 12:57:45;;;;;;;0.30;0.30;;;25.20;99.90;;;;;;4969944;28;20129;-82
2022/08/04 13:00:23;;;;;;;0.30;0.30;;;25.10;99.90;;;;;;4972698;28;20076;-82
2022/08/04 13:02:51;;;;;;;0.20;0.20;;;25.00;99.90;;;;;;4969835;28;20053;-84
2022/08/04 13:05:19;;;;;;;0.20;0.20;;;24.50;99.90;;;;;;4974708;28;20533;-83
2022/08/04 13:07:49;;;;;;;0.20;0.20;;;24.50;99.90;;;;;;4982977;28;20517;-83
2022/08/04 13:10:18;;;;;;;0.20;0.20;;;24.70;99.90;;;;;;4975085;28;20989;-83
2022/08/04 13:12:56;;;;;;;0.20;0.20;;;24.90;99.90;;;;;;4984772;28;20472;-83
2022/08/04 13:15:24;;;;;;;0.20;0.20;;;25.00;99.90;;;;;;4969929;28;20826;-83
2022/08/04 13:18:07;;;;;;;0.20;0.20;;;24.80;99.90;;;;;;4964824;28;20076;-82
2022/08/04 13:20:35;;;;;;;0.20;0.20;;;24.80;99.90;;;;;;4984379;28;20137;-83
2022/08/04 13:23:07;;;;;;;0.20;0.20;;;25.10;99.90;;;;;;4980770;28;20038;-82
2022/08/04 13:25:39;;;;;;;0.20;0.20;;;25.20;99.90;;;;;;4968940;28;20050;-84
2022/08/04 13:28:07;;;;;;;0.20;0.20;;;25.30;99.90;;;;;;4974991;28;20940;-83
2022/08/04 13:30:33;;;;;;;0.20;0.20;;;25.40;99.90;;;;;;4952793;28;20117;-82
2022/08/04 13:33:04;;;;;;;0.20;0.20;;;25.40;99.90;;;;;;4944890;28;20203;-83
2022/08/04 13:35:31;;;;;;;0.20;0.20;;;25.40;99.90;;;;;;4963134;28;20810;-82
2022/08/04 13:37:59;;;;;;;0.22;0.22;;;25.80;99.90;;;;;;4961308;28;20084;-80
2022/08/04 13:40:27;;;;;;;0.20;0.20;;;26.30;99.90;;;;;;4956020;28;20345;-80
2022/08/04 13:42:58;;;;;;;0.20;0.20;;;26.30;99.90;;;;;;4959724;28;20050;-79
2022/08/04 13:45:25;;;;;;;0.30;0.30;;;26.50;99.90;;;;;;4937205;28;20050;-81